createdAt,value
2023-11-18T15:20:44.716Z,101068.81
2023-11-18T15:21:08.520Z,101064.56
2023-11-18T15:22:02.733Z,101058.19
2023-11-18T15:22:24.342Z,101058.50
2023-11-18T15:22:46.600Z,101048.22
2023-11-18T15:23:08.457Z,101054.16
2023-11-18T15:23:30.192Z,101061.13
2023-11-18T15:23:52.830Z,101052.94
2023-11-18T15:24:15.225Z,101057.19
2023-11-18T15:24:36.858Z,101053.63
2023-11-18T15:25:00.764Z,101060.00
2023-11-18T15:25:22.906Z,101052.50
2023-11-18T15:25:46.113Z,101056.13
2023-11-18T15:27:12.980Z,101050.25
2023-11-18T15:27:34.628Z,101046.41
2023-11-18T15:27:57.206Z,101053.72
2023-11-18T15:28:19.784Z,101048.63
2023-11-18T15:28:41.977Z,101045.69
2023-11-18T15:29:10.816Z,101052.91
2023-11-18T15:29:38.656Z,101045.34
2023-11-18T15:30:03.221Z,101054.81
2023-11-18T15:30:26.462Z,101052.19
2023-11-18T15:30:48.174Z,101050.25
2023-11-18T15:31:10.953Z,101035.91
2023-11-18T15:31:32.598Z,101053.91
2023-11-18T15:31:55.967Z,101044.94
2023-11-18T15:32:18.251Z,101038.88
2023-11-18T15:32:40.622Z,101043.94
2023-11-18T15:33:03.486Z,101029.88
2023-11-18T15:33:25.751Z,101033.34
2023-11-18T15:33:47.384Z,101042.00
2023-11-18T15:34:09.479Z,101035.56
2023-11-18T15:34:32.827Z,101024.25
2023-11-18T15:34:54.530Z,101021.75
2023-11-18T15:35:17.797Z,101020.28
2023-11-18T15:35:39.800Z,101020.69
2023-11-18T15:36:02.239Z,100990.34
2023-11-18T15:36:23.937Z,101022.13
2023-11-18T15:36:45.785Z,101014.28
2023-11-18T15:37:07.402Z,101016.25
2023-11-18T15:37:30.192Z,101021.19
2023-11-18T15:37:52.046Z,101024.91
2023-11-18T15:38:18.186Z,101007.59
2023-11-18T15:38:40.630Z,101020.75
2023-11-18T15:39:04.446Z,101012.94
2023-11-18T15:39:27.067Z,101002.16
2023-11-18T15:39:48.746Z,101007.44
2023-11-18T15:40:11.865Z,101008.00
2023-11-18T15:40:33.601Z,100995.81
2023-11-18T15:40:55.491Z,101010.94
2023-11-18T15:41:17.586Z,101003.44
2023-11-18T15:41:39.228Z,100999.84
2023-11-18T15:42:00.892Z,101009.00
2023-11-18T15:42:24.830Z,100987.16
2023-11-18T15:42:49.624Z,100986.16
2023-11-18T15:43:13.030Z,101002.22
2023-11-18T15:43:35.089Z,101005.69
2023-11-18T15:43:56.796Z,101001.53
2023-11-18T15:44:20.913Z,100998.03
2023-11-18T15:44:43.331Z,101001.56
2023-11-18T15:45:09.413Z,101003.34
2023-11-18T15:45:31.010Z,100993.75
2023-11-18T15:45:52.686Z,101001.38
2023-11-18T15:46:15.419Z,100996.00
2023-11-18T15:46:38.916Z,100996.13
2023-11-18T15:47:00.670Z,100986.59
2023-11-18T15:47:22.523Z,100995.44
2023-11-18T15:47:44.999Z,100999.66
2023-11-18T15:48:08.452Z,100996.97
2023-11-18T15:48:32.279Z,101000.31
2023-11-18T15:48:53.940Z,100979.25
2023-11-18T15:49:15.541Z,100993.22
2023-11-18T15:49:37.149Z,101002.38
2023-11-18T15:49:59.007Z,100991.72
2023-11-18T15:50:22.046Z,100986.53
2023-11-18T15:50:43.898Z,100998.97
2023-11-18T15:51:06.081Z,100997.00
2023-11-18T15:51:28.691Z,100994.25
2023-11-18T15:51:50.285Z,101002.91
2023-11-18T15:52:13.438Z,100993.97
2023-11-18T15:52:37.404Z,101002.72
2023-11-18T15:52:59.359Z,100988.56
2023-11-18T15:53:21.135Z,100965.13
2023-11-18T15:53:42.855Z,100994.97
2023-11-18T15:54:05.913Z,100989.66
2023-11-18T15:54:28.408Z,100991.41
2023-11-18T15:54:50.055Z,100996.84
2023-11-18T15:55:14.696Z,100994.25
2023-11-18T15:55:37.902Z,100987.91
2023-11-18T15:55:59.645Z,100985.38
2023-11-18T15:56:21.515Z,100988.09
2023-11-18T15:56:43.491Z,100993.41
2023-11-18T15:57:05.804Z,100988.16
2023-11-18T15:57:29.953Z,100984.72
2023-11-18T15:57:54.713Z,100983.81
2023-11-18T15:58:19.704Z,100987.50
2023-11-18T15:58:41.321Z,100993.72
2023-11-18T15:59:03.377Z,100975.09
2023-11-18T15:59:27.262Z,100975.16
2023-11-18T15:59:49.884Z,100983.19
2023-11-18T16:00:16.763Z,100975.47
2023-11-18T16:00:38.842Z,100944.00
2023-11-18T16:01:00.832Z,100984.97
2023-11-18T16:01:49.025Z,100976.13
2023-11-18T16:02:10.705Z,100975.97
2023-11-18T16:04:59.464Z,100952.72
2023-11-18T16:12:47.438Z,100958.53
2023-11-18T16:13:09.162Z,100955.72
2023-11-18T16:13:30.884Z,100949.78
2023-11-18T16:13:53.513Z,100955.00
2023-11-18T16:19:06.957Z,100965.13
2023-11-18T16:19:29.345Z,100961.50
2023-11-18T16:19:51.004Z,100962.50
2023-11-18T16:20:18.483Z,100960.97
2023-11-18T16:20:41.054Z,100947.28
2023-11-18T16:21:04.593Z,100950.66
2023-11-18T16:22:27.010Z,100945.72
2023-11-18T16:24:26.388Z,100936.06
2023-11-18T16:25:12.819Z,100950.75
2023-11-18T16:25:35.971Z,100949.97
2023-11-18T16:27:17.013Z,100944.03
2023-11-18T16:27:39.587Z,100942.63
2023-11-18T16:28:03.672Z,100941.97
2023-11-18T16:28:26.079Z,100937.13
2023-11-18T16:28:47.683Z,100947.50
2023-11-18T16:29:09.411Z,100941.19
2023-11-18T16:29:32.230Z,100940.47
2023-11-18T16:29:53.885Z,100931.50
2023-11-18T16:30:16.393Z,100932.47
2023-11-18T16:30:38.642Z,100931.59
2023-11-18T16:31:01.716Z,100932.50
2023-11-18T16:31:24.602Z,100943.09
2023-11-18T16:32:14.134Z,100940.53
2023-11-18T16:32:48.188Z,100944.34
2023-11-18T16:33:12.458Z,100925.22
2023-11-18T16:40:21.879Z,100903.53
2023-11-18T16:40:43.770Z,100907.81
2023-11-18T16:41:05.596Z,100898.06
2023-11-18T16:41:38.488Z,100917.38
2023-11-18T16:42:08.007Z,100895.16
2023-11-18T16:42:29.793Z,100909.09
2023-11-18T16:42:52.961Z,100875.22
2023-11-18T16:43:15.972Z,100891.16
2023-11-18T16:43:37.620Z,100896.31
2023-11-18T16:44:56.933Z,100892.56
2023-11-18T16:45:21.983Z,100896.03
2023-11-18T16:47:57.456Z,100890.91
2023-11-18T16:54:29.815Z,100890.84
2023-11-18T16:55:16.081Z,100889.50
2023-11-18T16:55:46.436Z,100876.97
2023-11-18T16:56:09.622Z,100876.50
2023-11-18T16:56:31.800Z,100882.34
2023-11-18T16:56:53.831Z,100877.00
2023-11-18T16:57:15.446Z,100879.59
2023-11-18T16:57:38.793Z,100875.97
2023-11-18T16:58:00.482Z,100871.69
2023-11-18T16:58:23.561Z,100873.25
2023-11-18T16:58:45.323Z,100878.50
2023-11-18T16:59:07.116Z,100875.88
2023-11-18T16:59:32.201Z,100878.66
2023-11-18T16:59:56.610Z,100870.03
2023-11-18T17:00:23.970Z,100869.91
2023-11-18T17:00:47.714Z,100883.28
2023-11-18T17:01:10.397Z,100859.66
2023-11-18T17:01:32.168Z,100882.94
2023-11-18T17:01:54.242Z,100881.41
2023-11-18T17:02:16.247Z,100875.59
2023-11-18T17:02:38.030Z,100883.53
2023-11-18T17:03:01.259Z,100885.41
2023-11-18T17:03:23.125Z,100876.56
2023-11-18T17:03:45.054Z,100889.56
2023-11-18T17:04:08.373Z,100891.38
2023-11-18T17:04:30.168Z,100875.69
2023-11-18T17:04:53.907Z,100883.31
2023-11-18T17:05:17.386Z,100892.00
2023-11-18T17:05:39.313Z,100887.59
2023-11-18T17:06:02.920Z,100897.31
2023-11-18T17:07:02.200Z,100882.53
2023-11-18T17:07:28.223Z,100877.34
2023-11-18T17:07:50.441Z,100883.31
2023-11-18T17:08:15.238Z,100880.84
2023-11-18T17:08:37.196Z,100864.09
2023-11-18T17:09:36.330Z,100876.84
2023-11-18T17:10:02.219Z,100877.50
2023-11-18T17:11:35.175Z,100884.69
2023-11-18T17:12:22.311Z,100874.72
2023-11-18T17:14:16.046Z,100874.13
2023-11-18T17:15:40.687Z,100878.25
2023-11-18T17:16:02.605Z,100869.63
2023-11-18T17:16:28.046Z,100871.97
2023-11-18T17:16:49.692Z,100869.38
2023-11-18T17:17:12.092Z,100880.00
2023-11-18T17:17:33.810Z,100874.63
2023-11-18T17:18:01.978Z,100868.41
2023-11-18T17:18:24.583Z,100867.63
2023-11-18T17:18:46.254Z,100861.56
2023-11-18T17:19:07.869Z,100868.56
2023-11-18T17:19:29.520Z,100865.09
2023-11-18T17:19:51.890Z,100864.38
2023-11-18T17:20:16.473Z,100855.53
2023-11-18T17:20:38.273Z,100862.50
2023-11-18T17:20:59.875Z,100848.34
2023-11-18T17:21:21.555Z,100851.97
2023-11-18T17:21:43.158Z,100854.47
2023-11-18T17:22:06.136Z,100858.81
2023-11-18T17:22:27.844Z,100851.63
2023-11-18T17:22:49.700Z,100848.22
2023-11-18T17:23:12.542Z,100861.31
2023-11-18T17:23:34.307Z,100855.03
2023-11-18T17:23:57.011Z,100846.19
2023-11-18T17:24:18.708Z,100857.56
2023-11-18T17:24:40.735Z,100851.34
2023-11-18T17:25:02.947Z,100856.53
2023-11-18T17:25:24.934Z,100847.03
2023-11-18T17:25:47.604Z,100854.06
2023-11-18T17:26:09.431Z,100844.38
2023-11-18T17:26:38.592Z,100855.75
2023-11-18T17:27:02.212Z,100850.41
2023-11-18T17:27:25.494Z,100851.59
2023-11-18T17:27:48.725Z,100859.69
2023-11-18T17:28:10.335Z,100854.03
2023-11-18T17:28:32.336Z,100852.34
2023-11-18T17:28:53.989Z,100850.38
2023-11-18T17:29:15.717Z,100856.38
2023-11-18T17:29:38.451Z,100854.53
2023-11-18T17:30:01.049Z,100852.84
2023-11-18T17:30:23.088Z,100858.94
2023-11-18T17:30:46.194Z,100844.81
2023-11-18T17:31:07.911Z,100854.69
2023-11-18T17:31:30.624Z,100856.31
2023-11-18T17:31:52.324Z,100852.63
2023-11-18T17:32:13.967Z,100852.50
2023-11-18T17:32:35.619Z,100847.06
2023-11-18T17:32:58.025Z,100855.00
2023-11-18T17:33:19.670Z,100854.88
2023-11-18T17:33:42.270Z,100846.81
2023-11-18T17:34:05.409Z,100845.19
2023-11-18T17:34:29.242Z,100852.31
2023-11-18T17:34:50.853Z,100852.44
2023-11-18T17:35:15.102Z,100844.69
2023-11-18T17:35:37.935Z,100844.81
2023-11-18T17:35:59.648Z,100822.22
2023-11-18T17:36:21.310Z,100837.72
2023-11-18T17:36:44.844Z,100844.81
2023-11-18T17:37:09.142Z,100846.81
2023-11-18T17:37:30.755Z,100841.41
2023-11-18T17:37:53.419Z,100845.66
2023-11-18T17:38:15.051Z,100840.38
2023-11-18T17:38:36.864Z,100848.84
2023-11-18T17:38:58.567Z,100848.06
2023-11-18T17:39:20.255Z,100853.47
2023-11-18T17:39:42.045Z,100841.13
2023-11-18T17:40:06.581Z,100839.47
2023-11-18T17:40:28.357Z,100846.34
2023-11-18T17:40:50.205Z,100839.72
2023-11-18T17:41:11.858Z,100838.78
2023-11-18T17:41:33.541Z,100835.50
2023-11-18T17:41:55.160Z,100832.72
2023-11-18T17:42:17.829Z,100842.31
2023-11-18T17:42:39.639Z,100837.72
2023-11-18T17:43:01.341Z,100830.53
2023-11-18T17:43:23.918Z,100841.22
2023-11-18T17:43:45.482Z,100833.19
2023-11-18T17:44:08.130Z,100835.78
2023-11-18T17:44:29.834Z,100831.44
2023-11-18T17:44:51.540Z,100834.91
2023-11-18T17:45:14.276Z,100834.00
2023-11-18T17:45:36.218Z,100834.00
2023-11-18T17:45:59.243Z,100830.41
2023-11-18T17:46:21.928Z,100832.88
2023-11-18T17:46:43.596Z,100833.66
2023-11-18T17:47:07.096Z,100829.22
2023-11-18T17:47:29.317Z,100832.72
2023-11-18T17:47:51.098Z,100836.28
2023-11-18T17:48:13.382Z,100830.41
2023-11-18T17:48:37.195Z,100828.56
2023-11-18T17:48:59.170Z,100825.81
2023-11-18T17:49:23.325Z,100839.06
2023-11-18T17:49:46.408Z,100838.16
2023-11-18T17:50:10.286Z,100832.13
2023-11-18T17:50:35.019Z,100829.53
2023-11-18T17:50:59.635Z,100831.34
2023-11-18T17:51:23.994Z,100827.56
2023-11-18T17:51:46.170Z,100830.97
2023-11-18T17:52:07.790Z,100838.81
2023-11-18T17:52:30.003Z,100833.34
2023-11-18T17:52:52.737Z,100840.75
2023-11-18T17:53:14.408Z,100839.81
2023-11-18T17:53:36.061Z,100837.31
2023-11-18T17:53:57.715Z,100834.75
2023-11-18T17:54:19.322Z,100839.41
2023-11-18T17:54:43.550Z,100832.38
2023-11-18T17:55:05.865Z,100838.50
2023-11-18T17:55:28.897Z,100830.34
2023-11-18T17:55:51.604Z,100833.75
2023-11-18T17:56:15.495Z,100837.19
2023-11-18T17:56:37.183Z,100834.06
2023-11-18T17:57:01.048Z,100832.50
2023-11-18T17:57:23.225Z,100831.50
2023-11-18T17:57:45.331Z,100830.47
2023-11-18T17:58:08.068Z,100832.28
2023-11-18T17:58:30.607Z,100829.16
2023-11-18T17:58:52.607Z,100825.63
2023-11-18T17:59:14.264Z,100833.47
2023-11-18T17:59:35.916Z,100826.56
2023-11-18T17:59:58.610Z,100820.22
2023-11-18T18:00:23.407Z,100821.81
2023-11-18T18:00:46.709Z,100827.22
2023-11-18T18:01:09.980Z,100822.66
2023-11-18T18:01:31.700Z,100823.44
2023-11-18T18:01:55.062Z,100821.53
2023-11-18T18:02:17.197Z,100820.44
2023-11-18T18:02:40.698Z,100822.94
2023-11-18T18:03:02.475Z,100828.16
2023-11-18T18:03:24.249Z,100822.13
2023-11-18T18:03:46.104Z,100831.00
2023-11-18T18:04:07.834Z,100825.88
2023-11-18T18:05:15.664Z,100829.13
2023-11-18T18:05:37.437Z,100826.34
2023-11-18T18:06:00.694Z,100834.22
2023-11-18T18:06:22.869Z,100828.25
2023-11-18T18:06:48.576Z,100826.50
2023-11-18T18:07:12.311Z,100825.53
2023-11-18T18:07:34.065Z,100830.75
2023-11-18T18:07:55.702Z,100830.63
2023-11-18T18:08:17.377Z,100839.50
2023-11-18T18:08:41.133Z,100845.66
2023-11-18T18:09:02.772Z,100835.06
2023-11-18T18:09:25.437Z,100829.59
2023-11-18T18:09:47.290Z,100835.72
2023-11-18T18:10:10.855Z,100837.00
2023-11-18T18:10:33.730Z,100842.94
2023-11-18T18:10:56.847Z,100808.06
2023-11-18T18:11:18.984Z,100823.81
2023-11-18T18:11:40.818Z,100836.84
2023-11-18T18:12:02.535Z,100843.94
2023-11-18T18:12:24.168Z,100836.75
2023-11-18T18:12:48.475Z,100839.38
2023-11-18T18:13:11.735Z,100835.69
2023-11-18T18:13:33.672Z,100837.28
2023-11-18T18:13:58.286Z,100838.03
2023-11-18T18:14:19.964Z,100836.28
2023-11-18T18:14:42.556Z,100841.34
2023-11-18T18:15:05.777Z,100839.47
2023-11-18T18:15:27.964Z,100832.34
2023-11-18T18:15:49.849Z,100842.09
2023-11-18T18:16:15.187Z,100830.47
2023-11-18T18:16:36.919Z,100835.63
2023-11-18T18:16:58.587Z,100833.75
2023-11-18T18:17:20.965Z,100846.97
2023-11-18T18:17:43.613Z,100851.28
2023-11-18T18:18:06.569Z,100846.22
2023-11-18T18:18:28.317Z,100850.53
2023-11-18T18:18:50.005Z,100834.75
2023-11-18T18:19:11.651Z,100846.28
2023-11-18T18:19:33.294Z,100842.84
2023-11-18T18:19:55.038Z,100847.78
2023-11-18T18:20:21.007Z,100850.38
2023-11-18T18:20:48.881Z,100846.69
2023-11-18T18:21:10.603Z,100840.50
2023-11-18T18:21:33.239Z,100855.44
2023-11-18T18:21:54.918Z,100839.41
2023-11-18T18:22:16.591Z,100848.50
2023-11-18T18:22:39.959Z,100853.06
2023-11-18T18:23:01.661Z,100846.88
2023-11-18T18:23:23.373Z,100844.09
2023-11-18T18:23:45.006Z,100844.84
2023-11-18T18:24:07.020Z,100841.25
2023-11-18T18:24:28.769Z,100844.63
2023-11-18T18:24:51.525Z,100854.22
2023-11-18T18:25:13.607Z,100853.25
2023-11-18T18:25:35.408Z,100854.16
2023-11-18T18:25:57.027Z,100853.25
2023-11-18T18:26:18.685Z,100858.72
2023-11-18T18:26:41.522Z,100858.13
2023-11-18T18:27:03.585Z,100857.63
2023-11-18T18:27:25.329Z,100852.19
2023-11-18T18:27:51.678Z,100839.06
2023-11-18T18:28:14.400Z,100853.84
2023-11-18T18:28:36.063Z,100857.31
2023-11-18T18:28:58.857Z,100853.66
2023-11-18T18:29:20.733Z,100849.97
2023-11-18T18:29:43.779Z,100834.09
2023-11-18T18:30:06.817Z,100841.88
2023-11-18T18:30:29.356Z,100841.72
2023-11-18T18:30:51.094Z,100839.94
2023-11-18T18:31:14.067Z,100838.91
2023-11-18T18:31:35.751Z,100841.44
2023-11-18T18:31:57.420Z,100837.13
2023-11-18T18:32:19.190Z,100837.03
2023-11-18T18:32:42.175Z,100839.66
2023-11-18T18:33:04.129Z,100844.84
2023-11-18T18:33:26.034Z,100845.69
2023-11-18T18:33:48.458Z,100842.06
2023-11-18T18:34:10.128Z,100845.50
2023-11-18T18:34:32.714Z,100838.34
2023-11-18T18:34:54.372Z,100843.66
2023-11-18T18:35:17.564Z,100847.19
2023-11-18T18:35:40.763Z,100846.31
2023-11-18T18:36:02.535Z,100847.34
2023-11-18T18:36:24.192Z,100839.63
2023-11-18T18:36:46.804Z,100834.97
2023-11-18T18:37:08.714Z,100846.56
2023-11-18T18:37:30.531Z,100820.22
2023-11-18T18:37:52.183Z,100839.22
2023-11-18T18:38:15.083Z,100830.38
2023-11-18T18:38:36.729Z,100817.50
2023-11-18T18:38:58.334Z,100831.22
2023-11-18T18:39:19.952Z,100820.66
2023-11-18T18:39:41.541Z,100835.50
2023-11-18T18:40:05.792Z,100833.69
2023-11-18T18:40:29.172Z,100826.53
2023-11-18T18:40:51.985Z,100836.53
2023-11-18T18:41:14.944Z,100827.78
2023-11-18T18:41:36.611Z,100830.66
2023-11-18T18:42:00.700Z,100837.03
2023-11-18T18:42:22.643Z,100835.53
2023-11-18T18:42:44.341Z,100834.06
2023-11-18T18:43:07.672Z,100834.75
2023-11-18T18:43:30.270Z,100832.03
2023-11-18T18:43:51.873Z,100832.88
2023-11-18T18:44:13.675Z,100840.00
2023-11-18T18:44:35.356Z,100827.53
2023-11-18T18:44:57.946Z,100832.91
2023-11-18T18:45:19.782Z,100833.84
2023-11-18T18:45:42.446Z,100822.50
2023-11-18T18:46:04.564Z,100828.53
2023-11-18T18:46:28.299Z,100822.28
2023-11-18T18:46:49.889Z,100825.44
2023-11-18T18:47:11.659Z,100823.53
2023-11-18T18:47:34.469Z,100835.88
2023-11-18T18:47:56.681Z,100830.50
2023-11-18T18:48:18.933Z,100823.28
2023-11-18T18:48:40.623Z,100822.38
2023-11-18T18:49:02.644Z,100823.22
2023-11-18T18:49:24.234Z,100823.16
2023-11-18T18:49:46.796Z,100810.91
2023-11-18T18:50:09.787Z,100810.84
2023-11-18T18:50:35.601Z,100812.78
2023-11-18T18:50:58.025Z,100807.63
2023-11-18T18:51:19.640Z,100804.84
2023-11-18T18:51:42.204Z,100809.16
2023-11-18T18:52:04.135Z,100807.41
2023-11-18T18:52:25.845Z,100805.69
2023-11-18T18:52:47.472Z,100801.31
2023-11-18T18:53:09.235Z,100808.41
2023-11-18T18:53:33.615Z,100803.94
2023-11-18T18:53:55.264Z,100798.63
2023-11-18T18:54:16.957Z,100793.22
2023-11-18T18:54:38.799Z,100793.94
2023-11-18T18:55:00.460Z,100777.38
2023-11-18T18:55:22.085Z,100790.25
2023-11-18T18:55:45.125Z,100787.44
2023-11-18T18:56:07.797Z,100780.38
2023-11-18T18:56:30.103Z,100770.16
2023-11-18T18:56:51.796Z,100790.28
2023-11-18T18:57:13.849Z,100793.09
2023-11-18T18:57:36.572Z,100790.44
2023-11-18T18:57:58.782Z,100783.25
2023-11-18T18:58:20.535Z,100787.69
2023-11-18T18:58:42.161Z,100787.59
2023-11-18T18:59:05.071Z,100787.56
2023-11-18T18:59:27.803Z,100797.16
2023-11-18T18:59:49.464Z,100797.13
2023-11-18T19:00:13.144Z,100797.19
2023-11-18T19:00:35.121Z,100809.75
2023-11-18T19:00:56.774Z,100807.06
2023-11-18T19:01:19.400Z,100822.06
2023-11-18T19:01:45.723Z,100810.72
2023-11-18T19:02:09.088Z,100815.88
2023-11-18T19:02:32.019Z,100819.28
2023-11-18T19:02:53.849Z,100823.69
2023-11-18T19:03:16.899Z,100818.16
2023-11-18T19:03:38.766Z,100813.69
2023-11-18T19:04:00.541Z,100813.53
2023-11-18T19:04:22.558Z,100813.50
2023-11-18T19:04:44.320Z,100814.31
2023-11-18T19:05:06.612Z,100812.59
2023-11-18T19:05:29.622Z,100809.84
2023-11-18T19:05:51.298Z,100808.03
2023-11-18T19:06:12.976Z,100814.09
2023-11-18T19:06:34.648Z,100806.91
2023-11-18T19:06:56.322Z,100814.09
2023-11-18T19:07:19.401Z,100811.47
2023-11-18T19:07:42.469Z,100808.13
2023-11-18T19:08:04.589Z,100811.44
2023-11-18T19:08:27.257Z,100812.19
2023-11-18T19:08:48.924Z,100808.50
2023-11-18T19:09:10.583Z,100803.19
2023-11-18T19:09:32.235Z,100808.56
2023-11-18T19:09:54.836Z,100809.34
2023-11-18T19:10:19.950Z,100806.69
2023-11-18T19:10:41.848Z,100801.34
2023-11-18T19:11:04.558Z,100793.38
2023-11-18T19:11:26.708Z,100798.56
2023-11-18T19:11:50.048Z,100799.44
2023-11-18T19:12:11.657Z,100794.00
2023-11-18T19:12:33.892Z,100796.75
2023-11-18T19:13:00.821Z,100789.75
2023-11-18T19:13:23.489Z,100801.09
2023-11-18T19:13:45.106Z,100798.72
2023-11-18T19:14:08.398Z,100801.72
2023-11-18T19:14:30.118Z,100799.91
2023-11-18T19:14:51.753Z,100798.13
2023-11-18T19:15:17.149Z,100798.78
2023-11-18T19:15:38.816Z,100783.13
2023-11-18T19:16:01.526Z,100800.59
2023-11-18T19:16:23.238Z,100804.94
2023-11-18T19:16:46.282Z,100806.75
2023-11-18T19:17:07.938Z,100805.13
2023-11-18T19:17:29.647Z,100797.41
2023-11-18T19:17:51.495Z,100800.03
2023-11-18T19:18:13.395Z,100808.78
2023-11-18T19:18:36.023Z,100807.75
2023-11-18T19:18:57.668Z,100808.56
2023-11-18T19:19:19.812Z,100818.25
2023-11-18T19:19:41.573Z,100819.94
2023-11-18T19:20:07.100Z,100813.06
2023-11-18T19:20:29.968Z,100810.50
2023-11-18T19:20:51.741Z,100814.81
2023-11-18T19:21:13.411Z,100819.13
2023-11-18T19:21:35.108Z,100818.13
2023-11-18T19:21:59.566Z,100799.75
2023-11-18T19:22:21.854Z,100813.47
2023-11-18T19:22:44.907Z,100813.69
2023-11-18T19:23:06.610Z,100814.34
2023-11-18T19:23:28.284Z,100817.78
2023-11-18T19:23:49.933Z,100808.09
2023-11-18T19:24:14.089Z,100812.56
2023-11-18T19:24:36.920Z,100813.44
2023-11-18T19:24:58.535Z,100803.78
2023-11-18T19:25:20.233Z,100806.44
2023-11-18T19:25:41.842Z,100810.06
2023-11-18T19:26:04.738Z,100789.28
2023-11-18T19:26:26.603Z,100801.53
2023-11-18T19:26:48.806Z,100806.75
2023-11-18T19:27:12.138Z,100805.19
2023-11-18T19:27:33.919Z,100799.00
2023-11-18T19:27:56.546Z,100801.72
2023-11-18T19:28:18.356Z,100799.09
2023-11-18T19:28:39.983Z,100798.28
2023-11-18T19:29:01.662Z,100789.47
2023-11-18T19:29:23.288Z,100796.44
2023-11-18T19:29:46.020Z,100799.06
2023-11-18T19:30:10.286Z,100804.38
2023-11-18T19:30:31.993Z,100799.81
2023-11-18T19:30:53.587Z,100805.97
2023-11-18T19:31:15.266Z,100801.59
2023-11-18T19:31:38.061Z,100802.75
2023-11-18T19:32:00.982Z,100810.69
2023-11-18T19:32:23.512Z,100801.97
2023-11-18T19:32:45.427Z,100804.47
2023-11-18T19:33:08.066Z,100794.75
2023-11-18T19:33:29.715Z,100803.50
2023-11-18T19:33:51.362Z,100798.13
2023-11-18T19:34:13.087Z,100800.88
2023-11-18T19:34:34.744Z,100802.63
2023-11-18T19:34:57.349Z,100793.63
2023-11-18T19:35:19.243Z,100788.25
2023-11-18T19:35:40.963Z,100787.22
2023-11-18T19:36:02.606Z,100792.56
2023-11-18T19:36:24.214Z,100795.19
2023-11-18T19:36:47.497Z,100796.03
2023-11-18T19:37:11.922Z,100797.84
2023-11-18T19:37:34.273Z,100797.25
2023-11-18T19:37:55.979Z,100797.44
2023-11-18T19:38:18.648Z,100790.53
2023-11-18T19:38:40.798Z,100788.00
2023-11-18T19:39:04.307Z,100796.84
2023-11-18T19:39:26.075Z,100792.44
2023-11-18T19:39:47.797Z,100790.13
2023-11-18T19:40:12.098Z,100799.25
2023-11-18T19:40:33.953Z,100799.13
2023-11-18T19:40:57.118Z,100794.13
2023-11-18T19:41:18.830Z,100788.66
2023-11-18T19:41:41.504Z,100788.44
2023-11-18T19:42:03.232Z,100790.03
2023-11-18T19:42:24.886Z,100794.63
2023-11-18T19:42:47.444Z,100774.59
2023-11-18T19:43:10.244Z,100792.63
2023-11-18T19:43:32.069Z,100763.84
2023-11-18T19:43:54.227Z,100801.28
2023-11-18T19:44:17.226Z,100791.53
2023-11-18T19:44:40.396Z,100788.78
2023-11-18T19:45:03.127Z,100790.47
2023-11-18T19:45:25.057Z,100789.47
2023-11-18T19:45:49.744Z,100791.94
2023-11-18T19:46:11.456Z,100781.38
2023-11-18T19:46:34.088Z,100788.25
2023-11-18T19:46:55.692Z,100789.00
2023-11-18T19:47:18.695Z,100792.53
2023-11-18T19:47:40.426Z,100781.22
2023-11-18T19:48:02.220Z,100788.13
2023-11-18T19:48:25.670Z,100790.81
2023-11-18T19:48:47.308Z,100789.88
2023-11-18T19:49:11.510Z,100794.19
2023-11-18T19:49:34.836Z,100786.13
2023-11-18T19:49:58.573Z,100785.88
2023-11-18T19:50:49.151Z,100784.78
2023-11-18T19:51:11.694Z,100784.66
2023-11-18T19:51:33.365Z,100782.84
2023-11-18T19:51:54.946Z,100774.81
2023-11-18T19:52:17.501Z,100777.38
2023-11-18T19:52:39.229Z,100777.25
2023-11-18T19:53:00.866Z,100772.81
2023-11-18T19:53:22.603Z,100771.81
2023-11-18T19:53:44.409Z,100773.50
2023-11-18T19:54:07.246Z,100771.66
2023-11-18T19:54:28.864Z,100763.66
2023-11-18T19:54:50.718Z,100768.00
2023-11-18T19:55:14.727Z,100768.94
2023-11-18T19:55:37.163Z,100758.22
2023-11-18T19:55:59.820Z,100762.59
2023-11-18T19:56:21.459Z,100753.00
2023-11-18T19:56:43.772Z,100754.75
2023-11-18T19:57:05.966Z,100763.63
2023-11-18T19:57:27.651Z,100758.31
2023-11-18T19:57:50.316Z,100762.59
2023-11-18T19:58:11.988Z,100772.31
2023-11-18T19:58:33.604Z,100768.88
2023-11-18T19:58:55.206Z,100763.09
2023-11-18T19:59:16.872Z,100757.72
2023-11-18T19:59:40.154Z,100762.03
2023-11-18T20:00:01.831Z,100759.50
2023-11-18T20:00:24.757Z,100762.28
2023-11-18T20:00:46.607Z,100757.78
2023-11-18T20:01:39.223Z,100762.38
2023-11-18T20:02:01.955Z,100767.81
2023-11-18T20:02:25.046Z,100763.34
2023-11-18T20:02:46.829Z,100766.94
2023-11-18T20:03:08.638Z,100765.19
2023-11-18T20:03:30.480Z,100765.19
2023-11-18T20:03:52.249Z,100759.47
2023-11-18T20:04:14.991Z,100758.50
2023-11-18T20:04:36.725Z,100735.84
2023-11-18T20:04:59.340Z,100763.50
2023-11-18T20:05:21.102Z,100758.09
2023-11-18T20:05:42.775Z,100760.81
2023-11-18T20:06:05.668Z,100756.22
2023-11-18T20:06:27.328Z,100754.31
2023-11-18T20:06:48.926Z,100757.75
2023-11-18T20:07:10.728Z,100755.84
2023-11-18T20:07:32.365Z,100754.84
2023-11-18T20:07:55.250Z,100742.47
2023-11-18T20:08:19.247Z,100749.53
2023-11-18T20:08:40.949Z,100744.25
2023-11-18T20:09:03.593Z,100745.19
2023-11-18T20:09:26.580Z,100746.97
2023-11-18T20:09:48.637Z,100748.75
2023-11-18T20:10:13.452Z,100743.28
2023-11-18T20:10:35.223Z,100744.09
2023-11-18T20:10:56.866Z,100742.34
2023-11-18T20:11:18.529Z,100742.19
2023-11-18T20:11:50.095Z,100743.78
2023-11-18T20:12:11.724Z,100742.75
2023-11-18T20:12:33.541Z,100730.44
2023-11-18T20:12:55.206Z,100744.38
2023-11-18T20:13:16.913Z,100733.06
2023-11-18T20:13:39.628Z,100743.34
2023-11-18T20:14:01.302Z,100745.06
2023-11-18T20:14:23.655Z,100741.78
2023-11-18T20:14:45.341Z,100740.69
2023-11-18T20:15:08.508Z,100734.34
2023-11-18T20:15:30.141Z,100733.50
2023-11-18T20:15:54.936Z,100740.47
2023-11-18T20:16:16.624Z,100735.22
2023-11-18T20:16:38.804Z,100715.03
2023-11-18T20:17:00.786Z,100743.13
2023-11-18T20:17:22.508Z,100742.16
2023-11-18T20:17:47.714Z,100736.88
2023-11-18T20:18:11.375Z,100734.22
2023-11-18T20:18:33.499Z,100735.09
2023-11-18T20:18:55.210Z,100743.03
2023-11-18T20:19:18.028Z,100715.03
2023-11-18T20:19:39.762Z,100729.56
2023-11-18T20:20:01.502Z,100725.91
2023-11-18T20:20:23.354Z,100734.88
2023-11-18T20:20:45.981Z,100729.50
2023-11-18T20:21:10.795Z,100728.69
2023-11-18T20:21:32.443Z,100704.25
2023-11-18T20:21:54.117Z,100715.50
2023-11-18T20:22:15.766Z,100733.72
2023-11-18T20:22:38.368Z,100726.59
2023-11-18T20:23:01.073Z,100723.84
2023-11-18T20:23:22.794Z,100721.41